Airfield :
LOGIN :

Register | Disclaimer

   EN    FR    IT 

 










Legend :    VFR   Marginal VFR   IFR   Intensive IFR   Very Intensive IFR
Visi :
Ceiling :
>= 8 km
>= 3000ft
5 to 8 km
1000 to 3000 ft
1500m to 5 km
500 to 1000 ft
800 to 1500m
200 to 500 ft
< 800m
< 200 ft
Symbols :   Thunderstorms  Fog  Heavy snow  Heavy precipitations  Wind > 20 kt
SIGMETs :     Misc.  Thunderstorms  Icing  Turbulence  Mountain Waves  Volcanic Ashes






- Airport Elevation : 42 ft
- IATA code : LMO


EGQS - Lossiemouth

CURRENT METAR :
  • 081950Z 25017KT 9999 -SHRA FEW018 BKN040 05/03 Q0975 RMK BLU

EXPIRED METARs :
  • 081850Z 25016KT 9999 FEW020 SCT032 05/03 Q0974 RMK BLU
  • 081750Z 24014KT 9999 FEW042 04/02 Q0973 RMK BLU

TAF TAF EGQS
Valid from the 08 at 18:00 until the 09 at 12:00 UTC


081654Z 0818/0912 23020G32KT 9999 FEW020CB
PROB40
TEMPO 0818/0823 5000 SHRA SCT020CB
BECMG 0819/0821 29015KT
BECMG 0821/0823 34018G28KT
TEMPO 0823/0909 35025G38KT 4000 +SHRA SHGR SCT014 BKN018CB
PROB30
TEMPO 0903/0912 3000 SHRASN
PROB40
TEMPO 0909/0912 -SHSN SCT020



MET'MAP, your aeronautical weather chart ! - Copyright ORBIFLY December 2007 - Disclaimer

ORBIFLY MET'MAP TEAM :

Programming & Development : Alexandra Zaïnal
Concept & original design : Baudouin d'Aumeries
Assistance for programming : Marc-Olivier Méhu
Technical & hardware support : Manuel Goepfert

Contact : metmap@orbifly.com




SOURCES & CREDITS :

   NOAA